sensor_id;sensor_type;location;lat;lon;timestamp;temperature;humidity
34460;DHT22;20704;51.260;22.558;2022-08-02T00:02:01;18.40;99.90
34460;DHT22;20704;51.260;22.558;2022-08-02T00:04:30;18.50;99.90
34460;DHT22;20704;51.260;22.558;2022-08-02T00:06:56;18.50;99.90
34460;DHT22;20704;51.260;22.558;2022-08-02T00:09:22;18.50;99.90
34460;DHT22;20704;51.260;22.558;2022-08-02T00:11:48;18.50;99.90
34460;DHT22;20704;51.260;22.558;2022-08-02T00:14:14;18.50;99.90
34460;DHT22;20704;51.260;22.558;2022-08-02T00:16:40;18.60;99.90
34460;DHT22;20704;51.260;22.558;2022-08-02T00:19:06;18.60;99.90
34460;DHT22;20704;51.260;22.558;2022-08-02T00:21:32;18.60;99.90
34460;DHT22;20704;51.260;22.558;2022-08-02T00:23:58;18.60;99.90
34460;DHT22;20704;51.260;22.558;2022-08-02T00:26:24;18.70;99.90
34460;DHT22;20704;51.260;22.558;2022-08-02T00:28:50;18.60;99.90
34460;DHT22;20704;51.260;22.558;2022-08-02T00:31:16;18.60;99.90
34460;DHT22;20704;51.260;22.558;2022-08-02T00:33:42;18.60;99.90
34460;DHT22;20704;51.260;22.558;2022-08-02T00:36:08;18.60;99.90
34460;DHT22;20704;51.260;22.558;2022-08-02T00:38:34;18.60;99.90
34460;DHT22;20704;51.260;22.558;2022-08-02T00:41:00;18.60;99.90
34460;DHT22;20704;51.260;22.558;2022-08-02T00:43:26;18.60;99.90
34460;DHT22;20704;51.260;22.558;2022-08-02T00:45:52;18.60;99.90
34460;DHT22;20704;51.260;22.558;2022-08-02T00:48:18;18.60;99.90
34460;DHT22;20704;51.260;22.558;2022-08-02T00:50:44;18.60;99.90
34460;DHT22;20704;51.260;22.558;2022-08-02T00:53:10;18.60;99.90
34460;DHT22;20704;51.260;22.558;2022-08-02T00:55:36;18.60;99.90
34460;DHT22;20704;51.260;22.558;2022-08-02T00:58:04;18.70;99.90
34460;DHT22;20704;51.260;22.558;2022-08-02T01:00:30;18.60;99.90
34460;DHT22;20704;51.260;22.558;2022-08-02T01:02:56;18.60;99.90
34460;DHT22;20704;51.260;22.558;2022-08-02T01:05:22;18.60;99.90
34460;DHT22;20704;51.260;22.558;2022-08-02T01:07:48;18.60;99.90
34460;DHT22;20704;51.260;22.558;2022-08-02T01:10:14;18.60;99.90
34460;DHT22;20704;51.260;22.558;2022-08-02T01:12:40;18.60;99.90
34460;DHT22;20704;51.260;22.558;2022-08-02T01:15:10;18.50;99.90
34460;DHT22;20704;51.260;22.558;2022-08-02T01:18:03;18.50;99.90
34460;DHT22;20704;51.260;22.558;2022-08-02T01:26:33;18.60;99.90
34460;DHT22;20704;51.260;22.558;2022-08-02T01:29:21;18.50;99.90
34460;DHT22;20704;51.260;22.558;2022-08-02T01:32:05;18.60;99.90
34460;DHT22;20704;51.260;22.558;2022-08-02T01:35:08;18.60;99.90
34460;DHT22;20704;51.260;22.558;2022-08-02T01:40:09;18.50;99.90
34460;DHT22;20704;51.260;22.558;2022-08-02T01:42:39;18.50;99.90
34460;DHT22;20704;51.260;22.558;2022-08-02T01:45:08;18.60;99.90
34460;DHT22;20704;51.260;22.558;2022-08-02T01:47:38;18.60;99.90
34460;DHT22;20704;51.260;22.558;2022-08-02T01:50:05;18.50;99.90
34460;DHT22;20704;51.260;22.558;2022-08-02T01:52:35;18.50;99.90
34460;DHT22;20704;51.260;22.558;2022-08-02T01:55:10;18.50;99.90
34460;DHT22;20704;51.260;22.558;2022-08-02T01:57:45;18.40;99.90
34460;DHT22;20704;51.260;22.558;2022-08-02T02:00:12;18.40;99.90
34460;DHT22;20704;51.260;22.558;2022-08-02T02:02:42;18.50;99.90
34460;DHT22;20704;51.260;22.558;2022-08-02T02:05:17;18.40;99.90
34460;DHT22;20704;51.260;22.558;2022-08-02T02:07:45;18.50;99.90
34460;DHT22;20704;51.260;22.558;2022-08-02T02:10:16;18.50;99.90
34460;DHT22;20704;51.260;22.558;2022-08-02T02:12:48;18.30;99.90
34460;DHT22;20704;51.260;22.558;2022-08-02T02:15:16;18.30;99.90
34460;DHT22;20704;51.260;22.558;2022-08-02T02:17:45;18.40;99.90
34460;DHT22;20704;51.260;22.558;2022-08-02T02:20:15;18.40;99.90
34460;DHT22;20704;51.260;22.558;2022-08-02T02:22:42;18.40;99.90
34460;DHT22;20704;51.260;22.558;2022-08-02T02:25:09;18.40;99.90
34460;DHT22;20704;51.260;22.558;2022-08-02T02:27:36;18.40;99.90
34460;DHT22;20704;51.260;22.558;2022-08-02T02:30:04;18.50;99.90
34460;DHT22;20704;51.260;22.558;2022-08-02T02:32:31;18.50;99.90
34460;DHT22;20704;51.260;22.558;2022-08-02T02:34:58;18.50;99.90
34460;DHT22;20704;51.260;22.558;2022-08-02T02:37:26;18.50;99.90
34460;DHT22;20704;51.260;22.558;2022-08-02T02:39:54;18.50;99.90
34460;DHT22;20704;51.260;22.558;2022-08-02T02:42:27;18.50;99.90
34460;DHT22;20704;51.260;22.558;2022-08-02T02:44:54;18.50;99.90
34460;DHT22;20704;51.260;22.558;2022-08-02T02:47:21;18.50;99.90
34460;DHT22;20704;51.260;22.558;2022-08-02T02:49:49;18.50;99.90
34460;DHT22;20704;51.260;22.558;2022-08-02T02:52:16;18.60;99.90
34460;DHT22;20704;51.260;22.558;2022-08-02T02:54:44;18.50;99.90
34460;DHT22;20704;51.260;22.558;2022-08-02T02:57:11;18.60;99.90
34460;DHT22;20704;51.260;22.558;2022-08-02T02:59:38;18.60;99.90
34460;DHT22;20704;51.260;22.558;2022-08-02T03:02:05;18.50;99.90
34460;DHT22;20704;51.260;22.558;2022-08-02T03:04:32;18.50;99.90
34460;DHT22;20704;51.260;22.558;2022-08-02T03:06:59;18.60;99.90
34460;DHT22;20704;51.260;22.558;2022-08-02T03:09:26;18.60;99.90
34460;DHT22;20704;51.260;22.558;2022-08-02T03:11:54;18.60;99.90
34460;DHT22;20704;51.260;22.558;2022-08-02T03:14:21;18.60;99.90
34460;DHT22;20704;51.260;22.558;2022-08-02T03:16:49;18.70;99.90
34460;DHT22;20704;51.260;22.558;2022-08-02T03:19:15;18.70;99.90
34460;DHT22;20704;51.260;22.558;2022-08-02T03:21:42;18.70;99.90
34460;DHT22;20704;51.260;22.558;2022-08-02T03:24:09;18.80;99.90
34460;DHT22;20704;51.260;22.558;2022-08-02T03:26:35;18.80;99.90
34460;DHT22;20704;51.260;22.558;2022-08-02T03:29:01;18.70;99.90
34460;DHT22;20704;51.260;22.558;2022-08-02T03:31:27;18.80;99.90
34460;DHT22;20704;51.260;22.558;2022-08-02T03:33:55;18.90;99.90
34460;DHT22;20704;51.260;22.558;2022-08-02T03:36:24;18.90;99.90
34460;DHT22;20704;51.260;22.558;2022-08-02T03:38:51;18.90;99.90
34460;DHT22;20704;51.260;22.558;2022-08-02T03:41:19;18.90;99.90
34460;DHT22;20704;51.260;22.558;2022-08-02T03:43:46;18.90;99.90
34460;DHT22;20704;51.260;22.558;2022-08-02T03:46:20;19.00;99.90
34460;DHT22;20704;51.260;22.558;2022-08-02T03:48:49;18.90;99.90
34460;DHT22;20704;51.260;22.558;2022-08-02T03:51:17;19.00;99.90
34460;DHT22;20704;51.260;22.558;2022-08-02T03:53:43;19.00;99.90
34460;DHT22;20704;51.260;22.558;2022-08-02T03:56:10;19.00;99.90
34460;DHT22;20704;51.260;22.558;2022-08-02T03:58:36;19.00;99.90
34460;DHT22;20704;51.260;22.558;2022-08-02T04:01:02;19.00;99.90
34460;DHT22;20704;51.260;22.558;2022-08-02T04:03:28;19.10;99.90
34460;DHT22;20704;51.260;22.558;2022-08-02T04:05:54;19.20;99.90
34460;DHT22;20704;51.260;22.558;2022-08-02T04:08:20;19.30;99.90
34460;DHT22;20704;51.260;22.558;2022-08-02T04:10:46;19.40;99.90
34460;DHT22;20704;51.260;22.558;2022-08-02T04:13:35;19.50;99.90
34460;DHT22;20704;51.260;22.558;2022-08-02T04:16:14;19.60;99.90
34460;DHT22;20704;51.260;22.558;2022-08-02T04:18:55;19.60;99.90
34460;DHT22;20704;51.260;22.558;2022-08-02T04:21:25;19.80;99.90
34460;DHT22;20704;51.260;22.558;2022-08-02T04:23:52;19.80;99.90
34460;DHT22;20704;51.260;22.558;2022-08-02T04:26:19;19.90;99.90
34460;DHT22;20704;51.260;22.558;2022-08-02T04:28:47;19.90;99.90
34460;DHT22;20704;51.260;22.558;2022-08-02T04:31:15;19.90;99.90
34460;DHT22;20704;51.260;22.558;2022-08-02T04:33:42;20.00;99.90
34460;DHT22;20704;51.260;22.558;2022-08-02T04:36:09;20.10;99.90
34460;DHT22;20704;51.260;22.558;2022-08-02T04:38:39;20.10;99.90
34460;DHT22;20704;51.260;22.558;2022-08-02T04:41:05;20.30;99.90
34460;DHT22;20704;51.260;22.558;2022-08-02T04:43:31;20.40;99.90
34460;DHT22;20704;51.260;22.558;2022-08-02T04:45:57;20.40;99.90
34460;DHT22;20704;51.260;22.558;2022-08-02T04:48:23;20.50;99.90
34460;DHT22;20704;51.260;22.558;2022-08-02T04:50:49;20.60;99.90
34460;DHT22;20704;51.260;22.558;2022-08-02T04:53:16;20.70;99.90
34460;DHT22;20704;51.260;22.558;2022-08-02T04:55:42;20.70;99.90
34460;DHT22;20704;51.260;22.558;2022-08-02T04:58:08;20.90;99.90
34460;DHT22;20704;51.260;22.558;2022-08-02T05:00:34;21.00;99.90
34460;DHT22;20704;51.260;22.558;2022-08-02T05:03:01;21.10;99.90
34460;DHT22;20704;51.260;22.558;2022-08-02T05:05:27;21.20;99.90
34460;DHT22;20704;51.260;22.558;2022-08-02T05:07:53;21.30;99.90
34460;DHT22;20704;51.260;22.558;2022-08-02T05:10:19;21.30;99.90
34460;DHT22;20704;51.260;22.558;2022-08-02T05:12:45;21.50;99.90
34460;DHT22;20704;51.260;22.558;2022-08-02T05:15:12;21.40;99.90
34460;DHT22;20704;51.260;22.558;2022-08-02T05:17:39;21.40;99.90
34460;DHT22;20704;51.260;22.558;2022-08-02T05:20:05;21.60;99.90
34460;DHT22;20704;51.260;22.558;2022-08-02T05:22:31;21.70;99.90
34460;DHT22;20704;51.260;22.558;2022-08-02T05:24:57;21.80;99.90
34460;DHT22;20704;51.260;22.558;2022-08-02T05:27:23;21.90;99.90
34460;DHT22;20704;51.260;22.558;2022-08-02T05:29:49;22.00;99.90
34460;DHT22;20704;51.260;22.558;2022-08-02T05:32:17;22.10;99.90
34460;DHT22;20704;51.260;22.558;2022-08-02T05:34:43;22.30;99.90
34460;DHT22;20704;51.260;22.558;2022-08-02T05:37:09;22.50;99.90
34460;DHT22;20704;51.260;22.558;2022-08-02T05:39:35;22.80;99.90
34460;DHT22;20704;51.260;22.558;2022-08-02T05:42:01;23.10;99.90
34460;DHT22;20704;51.260;22.558;2022-08-02T05:44:27;23.40;99.90
34460;DHT22;20704;51.260;22.558;2022-08-02T05:46:53;23.40;99.90
34460;DHT22;20704;51.260;22.558;2022-08-02T05:49:19;23.40;99.90
34460;DHT22;20704;51.260;22.558;2022-08-02T05:52:02;23.40;99.90
34460;DHT22;20704;51.260;22.558;2022-08-02T06:00:04;23.90;99.90
34460;DHT22;20704;51.260;22.558;2022-08-02T06:03:00;24.00;99.90
34460;DHT22;20704;51.260;22.558;2022-08-02T06:05:33;24.20;99.90
34460;DHT22;20704;51.260;22.558;2022-08-02T06:08:00;24.90;99.90
34460;DHT22;20704;51.260;22.558;2022-08-02T06:10:28;25.50;99.90
34460;DHT22;20704;51.260;22.558;2022-08-02T06:15:29;27.00;99.90
34460;DHT22;20704;51.260;22.558;2022-08-02T06:17:56;27.80;99.90
34460;DHT22;20704;51.260;22.558;2022-08-02T06:20:24;28.30;99.90
34460;DHT22;20704;51.260;22.558;2022-08-02T06:22:52;28.40;99.90
34460;DHT22;20704;51.260;22.558;2022-08-02T06:25:21;28.80;99.90
34460;DHT22;20704;51.260;22.558;2022-08-02T06:27:48;29.10;99.90
34460;DHT22;20704;51.260;22.558;2022-08-02T06:30:15;29.50;99.90
34460;DHT22;20704;51.260;22.558;2022-08-02T06:32:42;29.60;99.90
34460;DHT22;20704;51.260;22.558;2022-08-02T06:35:09;29.90;99.90
34460;DHT22;20704;51.260;22.558;2022-08-02T06:37:50;30.10;99.40
34460;DHT22;20704;51.260;22.558;2022-08-02T06:40:28;30.30;98.10
34460;DHT22;20704;51.260;22.558;2022-08-02T06:46:02;30.80;97.30
34460;DHT22;20704;51.260;22.558;2022-08-02T06:48:30;30.90;97.30
34460;DHT22;20704;51.260;22.558;2022-08-02T06:50:56;31.20;95.30
34460;DHT22;20704;51.260;22.558;2022-08-02T06:53:22;30.90;94.40
34460;DHT22;20704;51.260;22.558;2022-08-02T06:55:48;31.00;93.80
34460;DHT22;20704;51.260;22.558;2022-08-02T06:58:14;31.00;93.20
34460;DHT22;20704;51.260;22.558;2022-08-02T07:00:41;30.80;93.10
34460;DHT22;20704;51.260;22.558;2022-08-02T07:03:08;30.70;93.40
34460;DHT22;20704;51.260;22.558;2022-08-02T07:05:34;30.50;92.70
34460;DHT22;20704;51.260;22.558;2022-08-02T07:08:01;30.20;93.20
34460;DHT22;20704;51.260;22.558;2022-08-02T07:10:27;30.80;93.20
34460;DHT22;20704;51.260;22.558;2022-08-02T07:12:53;31.20;93.10
34460;DHT22;20704;51.260;22.558;2022-08-02T07:15:19;31.30;91.10
34460;DHT22;20704;51.260;22.558;2022-08-02T07:20:11;31.70;87.80
34460;DHT22;20704;51.260;22.558;2022-08-02T07:25:05;32.10;91.60
34460;DHT22;20704;51.260;22.558;2022-08-02T07:32:28;31.10;85.90
34460;DHT22;20704;51.260;22.558;2022-08-02T07:34:55;31.40;91.30
34460;DHT22;20704;51.260;22.558;2022-08-02T07:37:29;31.90;85.50
34460;DHT22;20704;51.260;22.558;2022-08-02T08:48:23;32.30;75.50
34460;DHT22;20704;51.260;22.558;2022-08-02T08:50:56;31.80;75.20
34460;DHT22;20704;51.260;22.558;2022-08-02T08:53:27;31.40;75.60
34460;DHT22;20704;51.260;22.558;2022-08-02T09:10:43;32.20;76.10
34460;DHT22;20704;51.260;22.558;2022-08-02T09:13:16;32.90;91.00
34460;DHT22;20704;51.260;22.558;2022-08-02T09:15:55;32.40;76.60
34460;DHT22;20704;51.260;22.558;2022-08-02T09:18:35;31.90;74.70
34460;DHT22;20704;51.260;22.558;2022-08-02T09:21:03;31.70;74.70
34460;DHT22;20704;51.260;22.558;2022-08-02T09:23:43;31.90;95.50
34460;DHT22;20704;51.260;22.558;2022-08-02T09:26:12;31.20;75.60
34460;DHT22;20704;51.260;22.558;2022-08-02T09:28:41;31.00;76.20
34460;DHT22;20704;51.260;22.558;2022-08-02T09:31:12;31.30;77.30
34460;DHT22;20704;51.260;22.558;2022-08-02T09:33:40;31.60;77.70
34460;DHT22;20704;51.260;22.558;2022-08-02T09:36:11;31.60;78.40
34460;DHT22;20704;51.260;22.558;2022-08-02T09:38:38;31.00;77.80
34460;DHT22;20704;51.260;22.558;2022-08-02T09:41:18;30.50;77.40
34460;DHT22;20704;51.260;22.558;2022-08-02T09:46:15;30.40;78.70
34460;DHT22;20704;51.260;22.558;2022-08-02T09:49:02;30.90;84.20
34460;DHT22;20704;51.260;22.558;2022-08-02T09:51:32;30.10;78.30
34460;DHT22;20704;51.260;22.558;2022-08-02T09:54:04;29.70;78.20
34460;DHT22;20704;51.260;22.558;2022-08-02T09:56:49;29.60;79.50
34460;DHT22;20704;51.260;22.558;2022-08-02T09:59:16;29.30;80.50
34460;DHT22;20704;51.260;22.558;2022-08-02T10:01:44;28.90;79.90
34460;DHT22;20704;51.260;22.558;2022-08-02T10:04:12;29.50;81.00
34460;DHT22;20704;51.260;22.558;2022-08-02T10:06:40;29.60;79.90
34460;DHT22;20704;51.260;22.558;2022-08-02T10:09:08;29.40;79.40
34460;DHT22;20704;51.260;22.558;2022-08-02T10:14:06;29.00;92.50
34460;DHT22;20704;51.260;22.558;2022-08-02T10:16:34;29.20;81.40
34460;DHT22;20704;51.260;22.558;2022-08-02T10:22:16;29.90;81.30
34460;DHT22;20704;51.260;22.558;2022-08-02T10:24:37;30.40;80.00
34460;DHT22;20704;51.260;22.558;2022-08-02T10:27:06;30.60;79.90
34460;DHT22;20704;51.260;22.558;2022-08-02T10:32:33;31.00;91.80
34460;DHT22;20704;51.260;22.558;2022-08-02T10:35:08;30.20;77.70
34460;DHT22;20704;51.260;22.558;2022-08-02T10:37:36;30.20;78.00
34460;DHT22;20704;51.260;22.558;2022-08-02T10:40:04;29.80;77.60
34460;DHT22;20704;51.260;22.558;2022-08-02T10:42:48;29.50;78.20
34460;DHT22;20704;51.260;22.558;2022-08-02T10:45:17;29.40;79.10
34460;DHT22;20704;51.260;22.558;2022-08-02T10:48:02;29.50;79.00
34460;DHT22;20704;51.260;22.558;2022-08-02T10:58:17;30.00;79.20
34460;DHT22;20704;51.260;22.558;2022-08-02T11:06:01;31.20;93.00
34460;DHT22;20704;51.260;22.558;2022-08-02T11:11:00;30.30;92.60
34460;DHT22;20704;51.260;22.558;2022-08-02T11:21:24;30.60;78.40
34460;DHT22;20704;51.260;22.558;2022-08-02T11:23:51;30.30;78.20
34460;DHT22;20704;51.260;22.558;2022-08-02T11:29:03;30.10;78.20
34460;DHT22;20704;51.260;22.558;2022-08-02T11:31:41;30.00;77.80
34460;DHT22;20704;51.260;22.558;2022-08-02T11:36:49;30.10;78.40
34460;DHT22;20704;51.260;22.558;2022-08-02T11:39:18;30.10;78.10
34460;DHT22;20704;51.260;22.558;2022-08-02T11:41:52;29.90;78.40
34460;DHT22;20704;51.260;22.558;2022-08-02T11:46:53;30.10;79.60
34460;DHT22;20704;51.260;22.558;2022-08-02T11:51:54;30.40;78.80
34460;DHT22;20704;51.260;22.558;2022-08-02T11:54:29;30.00;92.60
34460;DHT22;20704;51.260;22.558;2022-08-02T11:59:37;29.70;77.60
34460;DHT22;20704;51.260;22.558;2022-08-02T12:02:04;29.70;77.90
34460;DHT22;20704;51.260;22.558;2022-08-02T12:06:58;29.00;78.40
34460;DHT22;20704;51.260;22.558;2022-08-02T12:09:27;28.90;78.20
34460;DHT22;20704;51.260;22.558;2022-08-02T12:11:54;28.80;78.70
34460;DHT22;20704;51.260;22.558;2022-08-02T12:22:16;28.90;79.10
34460;DHT22;20704;51.260;22.558;2022-08-02T12:24:46;28.70;79.00
34460;DHT22;20704;51.260;22.558;2022-08-02T12:27:28;28.70;79.50
34460;DHT22;20704;51.260;22.558;2022-08-02T12:30:08;28.80;79.80
34460;DHT22;20704;51.260;22.558;2022-08-02T12:32:36;28.80;79.40
34460;DHT22;20704;51.260;22.558;2022-08-02T12:37:43;28.70;79.10
34460;DHT22;20704;51.260;22.558;2022-08-02T12:40:22;28.60;78.60
34460;DHT22;20704;51.260;22.558;2022-08-02T12:42:53;28.40;78.30
34460;DHT22;20704;51.260;22.558;2022-08-02T12:47:51;28.30;78.40
34460;DHT22;20704;51.260;22.558;2022-08-02T12:50:30;28.50;79.40
34460;DHT22;20704;51.260;22.558;2022-08-02T12:53:13;28.50;93.70
34460;DHT22;20704;51.260;22.558;2022-08-02T12:56:05;28.60;80.30
34460;DHT22;20704;51.260;22.558;2022-08-02T12:58:48;28.70;80.00
34460;DHT22;20704;51.260;22.558;2022-08-02T13:01:26;28.70;79.80
34460;DHT22;20704;51.260;22.558;2022-08-02T13:03:53;28.60;80.30
34460;DHT22;20704;51.260;22.558;2022-08-02T13:28:20;28.00;79.80
34460;DHT22;20704;51.260;22.558;2022-08-02T13:35:40;27.90;80.60
34460;DHT22;20704;51.260;22.558;2022-08-02T14:44:03;27.20;83.50
34460;DHT22;20704;51.260;22.558;2022-08-02T14:46:30;27.30;84.10
34460;DHT22;20704;51.260;22.558;2022-08-02T14:51:28;27.10;84.20
34460;DHT22;20704;51.260;22.558;2022-08-02T15:06:06;26.90;87.60
34460;DHT22;20704;51.260;22.558;2022-08-02T15:23:13;27.10;84.80
34460;DHT22;20704;51.260;22.558;2022-08-02T16:02:20;26.50;86.30
34460;DHT22;20704;51.260;22.558;2022-08-02T16:04:46;26.30;86.80
34460;DHT22;20704;51.260;22.558;2022-08-02T16:14:33;26.20;87.10
34460;DHT22;20704;51.260;22.558;2022-08-02T17:20:28;25.20;91.50
34460;DHT22;20704;51.260;22.558;2022-08-02T17:25:21;25.10;94.50
34460;DHT22;20704;51.260;22.558;2022-08-02T17:35:08;24.90;92.10
34460;DHT22;20704;51.260;22.558;2022-08-02T17:37:36;24.80;92.20
34460;DHT22;20704;51.260;22.558;2022-08-02T17:40:03;24.80;92.30
34460;DHT22;20704;51.260;22.558;2022-08-02T17:44:57;24.60;92.60
34460;DHT22;20704;51.260;22.558;2022-08-02T17:49:51;24.50;92.80
34460;DHT22;20704;51.260;22.558;2022-08-02T17:52:19;24.40;92.80
34460;DHT22;20704;51.260;22.558;2022-08-02T18:07:00;24.10;93.80
34460;DHT22;20704;51.260;22.558;2022-08-02T18:09:28;24.00;94.00
34460;DHT22;20704;51.260;22.558;2022-08-02T18:16:48;23.90;94.70
34460;DHT22;20704;51.260;22.558;2022-08-02T18:19:18;23.90;94.90
34460;DHT22;20704;51.260;22.558;2022-08-02T18:21:45;23.80;95.10
34460;DHT22;20704;51.260;22.558;2022-08-02T18:36:28;23.60;96.20
34460;DHT22;20704;51.260;22.558;2022-08-02T18:53:36;23.30;98.50
34460;DHT22;20704;51.260;22.558;2022-08-02T18:56:03;23.30;98.90
34460;DHT22;20704;51.260;22.558;2022-08-02T19:13:10;23.10;99.90
34460;DHT22;20704;51.260;22.558;2022-08-02T19:15:38;23.10;99.90
34460;DHT22;20704;51.260;22.558;2022-08-02T19:18:05;23.10;99.90
34460;DHT22;20704;51.260;22.558;2022-08-02T19:20:32;23.10;99.90
34460;DHT22;20704;51.260;22.558;2022-08-02T19:40:10;22.80;99.90
34460;DHT22;20704;51.260;22.558;2022-08-02T19:42:52;22.80;99.90
34460;DHT22;20704;51.260;22.558;2022-08-02T19:47:45;22.80;99.90
34460;DHT22;20704;51.260;22.558;2022-08-02T19:52:42;22.70;99.90
34460;DHT22;20704;51.260;22.558;2022-08-02T19:55:09;22.80;99.90
34460;DHT22;20704;51.260;22.558;2022-08-02T19:57:35;22.60;99.90
34460;DHT22;20704;51.260;22.558;2022-08-02T20:00:04;22.60;99.90
34460;DHT22;20704;51.260;22.558;2022-08-02T20:05:05;22.40;99.90
34460;DHT22;20704;51.260;22.558;2022-08-02T20:36:51;22.20;99.90
34460;DHT22;20704;51.260;22.558;2022-08-02T20:41:46;22.30;99.90
34460;DHT22;20704;51.260;22.558;2022-08-02T20:44:13;22.30;99.90
34460;DHT22;20704;51.260;22.558;2022-08-02T21:08:39;22.70;99.90
34460;DHT22;20704;51.260;22.558;2022-08-02T22:04:47;22.10;99.90
34460;DHT22;20704;51.260;22.558;2022-08-02T22:07:23;22.10;99.90
34460;DHT22;20704;51.260;22.558;2022-08-02T22:12:16;22.10;99.90
34460;DHT22;20704;51.260;22.558;2022-08-02T22:36:42;21.80;99.90
34460;DHT22;20704;51.260;22.558;2022-08-02T22:39:12;21.80;99.90
34460;DHT22;20704;51.260;22.558;2022-08-02T22:41:39;21.60;99.90
34460;DHT22;20704;51.260;22.558;2022-08-02T22:58:45;21.50;99.90
34460;DHT22;20704;51.260;22.558;2022-08-02T23:01:13;21.40;99.90
34460;DHT22;20704;51.260;22.558;2022-08-02T23:08:33;21.30;99.90
34460;DHT22;20704;51.260;22.558;2022-08-02T23:10:59;21.20;99.90
34460;DHT22;20704;51.260;22.558;2022-08-02T23:31:34;21.30;99.90
34460;DHT22;20704;51.260;22.558;2022-08-02T23:34:01;21.30;99.90
34460;DHT22;20704;51.260;22.558;2022-08-02T23:41:21;21.30;99.90
